Flight Track Log - Related Links

Times and Time Zones

All times are in EDT time to prevent confusion due to time zone crossing. See the ASQ1352 flight status page for this flight to view local times or setup timezone preferences in your user account.

Time Position Orientation Groundspeed Altitude Reporting Facility
EDT Latitude Longitude Course Direction KTS MPH feet Rate Location/Type
Wed 06:26:22 PM 39.0500 -84.6833 218° Southwest 158 182 1,600  Level Cincinnati TRACON
Wed 06:27:22 PM 39.0000 -84.7333 218° Southwest 217 250 4,100 2,632 Climbing Cincinnati TRACON
Wed 06:28:16 PM 38.9667 -84.7667 218° Southwest 246 283 6,600 2,048 Climbing Cincinnati TRACON
Wed 06:29:28 PM 38.9000 -84.8167 210° Southwest 235 270 8,400 1,729 Climbing Cincinnati TRACON
Wed 06:30:14 PM 38.8503 -84.8519 209° Southwest 240 276 10,000 897 Climbing Indianapolis Center
Wed 06:31:15 PM 38.7747 -84.8792 196° South 273 314 10,000 976 Level Indianapolis Center
Wed 06:32:17 PM 38.6861 -84.9081 194° South 323 372 12,000 2,129 Climbing Indianapolis Center
Wed 06:33:19 PM 38.6017 -84.9478 200° South 335 386 14,400 2,683 Climbing Indianapolis Center
Wed 06:34:20 PM 38.4994 -85.0003 202° Southwest 337 388 17,500 2,780 Climbing Indianapolis Center
Wed 06:35:22 PM 38.4142 -85.0456 203° Southwest 334 384 20,100 1,984 Climbing Indianapolis Center
Wed 06:36:24 PM 38.3278 -85.0892 202° Southwest 333 383 21,600 927 Climbing Indianapolis Center
Wed 06:37:25 PM 38.2331 -85.1383 202° Southwest 362 417 22,000 195 Climbing Indianapolis Center
Wed 06:38:27 PM 38.1356 -85.1878 202° Southwest 374 430 22,000  Level Indianapolis Center
Wed 06:39:29 PM 38.0442 -85.2344 202° Southwest 370 426 22,000  Level Indianapolis Center
Wed 06:40:30 PM 37.9506 -85.2833 202° Southwest 364 419 22,000  Level Indianapolis Center
Wed 06:41:32 PM 37.8394 -85.3383 201° Southwest 355 409 22,000  Level Indianapolis Center
Wed 06:42:34 PM 37.7500 -85.3844 202° Southwest 352 405 22,000  Level Indianapolis Center
Wed 06:43:35 PM 37.6508 -85.4342 202° Southwest 373 429 22,000  Level Indianapolis Center
Wed 06:44:37 PM 37.5503 -85.4853 202° Southwest 386 444 22,000  Level Indianapolis Center
Wed 06:45:39 PM 37.4489 -85.5369 202° Southwest 378 435 22,000  Level Indianapolis Center
Wed 06:46:40 PM 37.3531 -85.5842 201° Southwest 371 427 22,000  Level Indianapolis Center
Wed 06:47:42 PM 37.2475 -85.6528 207° Southwest 377 434 22,000  Level Indianapolis Center
Wed 06:48:44 PM 37.1489 -85.7144 206° Southwest 387 445 22,000 -98 Level Indianapolis Center
Wed 06:49:45 PM 37.0467 -85.7742 205° Southwest 397 457 21,800 -829 Descending Indianapolis Center
Wed 06:50:47 PM 36.9453 -85.8117 196° South 380 437 20,300 -1,887 Descending Indianapolis Center
Wed 06:51:49 PM 36.8453 -85.8472 196° South 371 427 17,900 -2,244 Descending Indianapolis Center
Wed 06:52:50 PM 36.7494 -85.8800 195° South 356 410 15,700 -2,146 Descending Indianapolis Center
Wed 06:53:52 PM 36.6711 -85.9400 212° Southwest 343 395 13,500 -2,177 Descending Indianapolis Center
Wed 06:54:54 PM 36.6089 -86.0264 228° Southwest 335 386 11,200 -1,707 Descending Indianapolis Center
Wed 06:55:55 PM 36.5481 -86.1067 227° Southwest 319 367 10,000 -818 Descending Indianapolis Center
Wed 06:56:44 PM 36.5108 -86.1642 231° Southwest 291 335 9,700 -881 Descending Memphis Center
Wed 06:57:44 PM 36.4711 -86.2256 231° Southwest 247 284 8,400 -1,550 Descending Memphis Center
Wed 06:58:44 PM 36.4294 -86.2869 230° Southwest 232 267 6,600 -1,800 Descending Memphis Center
Wed 06:59:44 PM 36.3839 -86.3589 232° Southwest 238 274 4,800 -1,450 Descending Memphis Center
Wed 07:00:44 PM 36.3419 -86.4203 230° Southwest 238 274 3,700 -900 Descending Memphis Center
Wed 07:01:44 PM 36.3022 -86.4839 232° Southwest 238 274 3,000 -600 Descending Memphis Center
Wed 07:02:44 PM 36.2606 -86.5450 230° Southwest 238 274 2,500 -350 Descending Memphis Center
Wed 07:03:44 PM 36.2244 -86.5983 230° Southwest 225 259 2,300 -350 Descending Memphis Center
Wed 07:04:44 PM 36.1950 -86.6511 235° Southwest 198 228 1,800 -550 Descending Memphis Center
Wed 07:05:44 PM 36.1642 -86.6703 207° Southwest 160 184 1,200 -550 Descending Memphis Center
Wed 07:06:44 PM 36.1314 -86.6925 209° Southwest 137 158 700 -500 Descending Memphis Center
Wed 07:08:00 PM 36.1245 -86.6782 230° Southwest  Level Estimated
Wed 07:15:00 PM 36.1245 -86.6782 230° Southwest  Level Estimated
Wed 07:16:00 PM 36.1245 -86.6782 230° Southwest  Level Estimated
Wed 07:17:00 PM 36.1245 -86.6782 230° Southwest  Level Estimated
Wed 07:18:00 PM 36.1245 -86.6782 230° Southwest  Level Estimated
Wed 07:19:00 PM 36.1245 -86.6782 230° Southwest  Level Estimated
Wed 07:20:00 PM 36.1245 -86.6782 230° Southwest  Level Estimated
Wed 07:21:00 PM 36.1245 -86.6782 230° Southwest  Level Estimated

Login

Don't have an account? Register now (free) for customized features, flight alerts, and more!